createdAt,value
2023-03-30T00:01:21.892Z,61.99
2023-03-30T00:03:50.488Z,62.40
2023-03-30T00:06:22.885Z,62.22
2023-03-30T00:08:57.237Z,61.88
2023-03-30T00:11:27.669Z,62.13
2023-03-30T00:13:56.012Z,61.85
2023-03-30T00:16:26.062Z,61.53
2023-03-30T00:18:54.513Z,61.92
2023-03-30T00:21:23.080Z,61.48
2023-03-30T00:23:52.444Z,61.31
2023-03-30T00:26:20.910Z,61.80
2023-03-30T00:28:49.277Z,61.53
2023-03-30T00:31:20.290Z,61.06
2023-03-30T00:33:50.265Z,60.53
2023-03-30T00:36:18.957Z,59.98
2023-03-30T00:38:49.275Z,60.44
2023-03-30T00:41:17.891Z,60.07
2023-03-30T00:43:58.579Z,59.93
2023-03-30T00:46:27.088Z,59.28
2023-03-30T00:48:59.728Z,59.35
2023-03-30T00:51:29.940Z,59.36
2023-03-30T00:54:05.782Z,59.33
2023-03-30T00:56:34.761Z,59.22
2023-03-30T00:59:04.129Z,59.47
2023-03-30T01:01:38.654Z,59.63
2023-03-30T01:04:10.988Z,59.91
2023-03-30T01:06:43.392Z,60.02
2023-03-30T01:09:12.025Z,59.74
2023-03-30T01:11:41.028Z,59.69
2023-03-30T01:14:12.534Z,60.35
2023-03-30T01:16:50.523Z,60.35
2023-03-30T01:20:13.029Z,60.28
2023-03-30T01:23:10.801Z,60.43
2023-03-30T01:26:12.561Z,60.45
2023-03-30T01:28:46.888Z,60.74
2023-03-30T01:31:42.045Z,60.00
2023-03-30T01:35:02.391Z,59.95
2023-03-30T01:38:19.003Z,60.08
2023-03-30T01:41:02.056Z,59.80
2023-03-30T01:43:38.024Z,59.88
2023-03-30T01:46:17.604Z,60.57
2023-03-30T01:48:54.756Z,61.12
2023-03-30T01:51:28.164Z,61.06
2023-03-30T01:54:03.655Z,61.67
2023-03-30T01:56:36.420Z,62.55
2023-03-30T01:59:12.613Z,62.75
2023-03-30T02:01:50.151Z,62.71
2023-03-30T02:04:23.909Z,63.57
2023-03-30T02:07:00.492Z,63.71
2023-03-30T02:09:30.893Z,64.10
2023-03-30T02:12:01.884Z,64.59
2023-03-30T02:14:34.799Z,64.80
2023-03-30T02:17:11.357Z,64.76
2023-03-30T02:19:39.866Z,65.04
2023-03-30T02:22:08.727Z,65.22
2023-03-30T02:24:38.029Z,65.43
2023-03-30T02:27:07.986Z,65.64
2023-03-30T02:29:40.188Z,66.04
2023-03-30T02:32:20.479Z,66.27
2023-03-30T02:35:11.294Z,66.69
2023-03-30T02:38:16.049Z,65.64
2023-03-30T02:40:57.957Z,65.64
2023-03-30T02:43:40.751Z,66.20
2023-03-30T02:46:25.733Z,65.60
2023-03-30T02:49:09.169Z,65.36
2023-03-30T02:51:46.863Z,65.96
2023-03-30T02:54:37.569Z,67.45
2023-03-30T02:57:38.197Z,68.59
2023-03-30T03:00:36.041Z,70.37
2023-03-30T03:03:12.947Z,71.30
2023-03-30T03:05:42.923Z,71.78
2023-03-30T03:08:16.530Z,72.13
2023-03-30T03:10:47.093Z,72.36
2023-03-30T03:13:16.943Z,72.19
2023-03-30T03:15:49.568Z,72.46
2023-03-30T03:18:18.671Z,72.45
2023-03-30T03:20:47.635Z,72.41
2023-03-30T03:23:16.056Z,71.66
2023-03-30T03:25:49.421Z,71.94
2023-03-30T03:28:20.138Z,71.77
2023-03-30T03:30:58.266Z,70.95
2023-03-30T03:33:27.476Z,70.93
2023-03-30T03:36:09.058Z,70.96
2023-03-30T03:38:42.228Z,70.83
2023-03-30T03:41:11.129Z,70.77
2023-03-30T03:43:41.636Z,70.49
2023-03-30T03:46:12.064Z,69.84
2023-03-30T03:48:41.444Z,69.55
2023-03-30T03:51:11.307Z,70.03
2023-03-30T03:53:39.732Z,70.48
2023-03-30T03:56:12.701Z,70.70
2023-03-30T03:58:41.220Z,70.77
2023-03-30T04:01:14.454Z,71.22
2023-03-30T04:03:42.994Z,72.61
2023-03-30T04:06:11.603Z,74.03
2023-03-30T04:08:40.092Z,75.07
2023-03-30T04:11:46.873Z,77.05
2023-03-30T04:14:30.909Z,79.22
2023-03-30T04:17:16.387Z,80.13
2023-03-30T04:20:04.170Z,80.62
2023-03-30T04:22:50.307Z,81.08
2023-03-30T04:25:48.103Z,81.27
2023-03-30T04:28:35.702Z,80.90
2023-03-30T04:31:35.902Z,81.11
2023-03-30T04:34:26.782Z,81.06
2023-03-30T04:37:08.475Z,81.27
2023-03-30T04:40:09.402Z,81.30
2023-03-30T04:43:02.352Z,81.01
2023-03-30T04:45:55.619Z,81.06
2023-03-30T04:48:42.504Z,81.35
2023-03-30T04:51:35.636Z,81.10
2023-03-30T04:54:12.639Z,81.15
2023-03-30T04:57:07.520Z,81.26
2023-03-30T04:59:46.280Z,81.21
2023-03-30T05:02:33.607Z,81.03
2023-03-30T05:05:20.564Z,81.08
2023-03-30T05:08:02.423Z,81.17
2023-03-30T05:10:47.726Z,80.85
2023-03-30T05:13:36.324Z,81.95
2023-03-30T05:16:20.168Z,82.06
2023-03-30T05:19:11.003Z,81.63
2023-03-30T05:21:45.755Z,81.01
2023-03-30T05:24:54.324Z,81.10
2023-03-30T05:27:37.291Z,80.98
2023-03-30T05:30:37.995Z,80.61
2023-03-30T05:33:24.888Z,80.38
2023-03-30T05:36:13.537Z,80.22
2023-03-30T05:39:01.894Z,80.05
2023-03-30T05:41:54.279Z,79.79
2023-03-30T05:44:46.951Z,79.59
2023-03-30T05:47:50.325Z,79.98
2023-03-30T05:50:37.482Z,81.00
2023-03-30T05:53:09.598Z,81.30
2023-03-30T05:56:01.244Z,81.69
2023-03-30T05:58:49.669Z,81.99
2023-03-30T06:01:41.329Z,82.01
2023-03-30T06:04:10.072Z,82.16
2023-03-30T06:06:39.178Z,82.53
2023-03-30T06:09:07.584Z,82.64
2023-03-30T06:11:37.862Z,82.39
2023-03-30T06:14:23.538Z,82.50
2023-03-30T06:17:21.127Z,82.13
2023-03-30T06:19:50.511Z,82.04
2023-03-30T06:22:18.972Z,82.74
2023-03-30T06:24:52.624Z,82.87
2023-03-30T06:27:22.296Z,81.92
2023-03-30T06:29:52.057Z,80.91
2023-03-30T06:32:20.504Z,80.51
2023-03-30T06:35:18.306Z,80.51
2023-03-30T06:37:47.168Z,80.16
2023-03-30T06:40:17.367Z,79.45
2023-03-30T06:42:49.535Z,79.12
2023-03-30T06:45:31.677Z,78.73
2023-03-30T06:48:00.405Z,79.01
2023-03-30T06:50:30.092Z,77.88
2023-03-30T06:53:07.783Z,77.06
2023-03-30T06:55:43.106Z,76.06
2023-03-30T06:58:16.824Z,75.50
2023-03-30T07:00:47.066Z,75.20
2023-03-30T07:03:34.100Z,73.73
2023-03-30T07:06:21.006Z,73.58
2023-03-30T07:08:50.443Z,73.67
2023-03-30T07:11:23.764Z,73.00
2023-03-30T07:13:55.452Z,73.89
2023-03-30T07:16:25.711Z,73.96
2023-03-30T07:18:55.057Z,73.11
2023-03-30T07:21:23.887Z,73.40
2023-03-30T07:23:52.558Z,73.21
2023-03-30T07:26:32.739Z,72.74
2023-03-30T07:29:07.436Z,72.55
2023-03-30T07:31:38.234Z,72.50
2023-03-30T07:34:09.401Z,73.22
2023-03-30T07:36:42.262Z,72.13
2023-03-30T07:39:11.204Z,72.15
2023-03-30T07:41:41.769Z,72.59
2023-03-30T07:44:10.165Z,72.26
2023-03-30T07:46:41.231Z,72.55
2023-03-30T07:49:15.315Z,71.66
2023-03-30T07:51:43.792Z,71.56
2023-03-30T07:54:25.465Z,71.69
2023-03-30T07:57:14.170Z,71.51
2023-03-30T07:59:42.690Z,70.79
2023-03-30T08:02:22.456Z,70.10
2023-03-30T08:04:53.980Z,68.97
2023-03-30T08:07:43.062Z,69.09
2023-03-30T08:10:20.763Z,69.58
2023-03-30T08:12:49.331Z,68.67
2023-03-30T08:15:17.875Z,68.49
2023-03-30T08:17:47.725Z,69.19
2023-03-30T08:20:16.124Z,68.35
2023-03-30T08:22:44.577Z,68.64
2023-03-30T08:25:13.004Z,67.79
2023-03-30T08:27:41.375Z,67.99
2023-03-30T08:30:13.150Z,68.11
2023-03-30T08:32:41.552Z,66.89
2023-03-30T08:35:13.078Z,67.13
2023-03-30T08:37:42.040Z,66.99
2023-03-30T08:40:13.816Z,66.83
2023-03-30T08:43:12.909Z,65.97
2023-03-30T08:45:44.204Z,64.28
2023-03-30T08:48:19.119Z,64.16
2023-03-30T08:50:57.438Z,64.94
2023-03-30T08:53:26.547Z,65.30
2023-03-30T08:56:02.477Z,66.58
2023-03-30T08:58:44.040Z,66.06
2023-03-30T09:01:22.040Z,66.36
2023-03-30T09:04:09.135Z,65.78
2023-03-30T09:06:49.993Z,64.92
2023-03-30T09:09:22.326Z,64.02
2023-03-30T09:11:56.628Z,63.94
2023-03-30T09:14:35.560Z,63.90
2023-03-30T09:17:13.080Z,62.95
2023-03-30T09:19:52.369Z,63.91
2023-03-30T09:22:26.214Z,64.47
2023-03-30T09:24:55.513Z,64.27
2023-03-30T09:27:36.018Z,64.35
2023-03-30T09:30:20.042Z,64.03
2023-03-30T09:33:00.914Z,63.35
2023-03-30T09:35:40.405Z,62.38
2023-03-30T09:38:14.289Z,61.78
2023-03-30T09:41:07.334Z,62.15
2023-03-30T09:43:44.038Z,61.15
2023-03-30T09:46:14.109Z,60.62
2023-03-30T09:48:44.646Z,60.95
2023-03-30T09:51:25.205Z,61.37
2023-03-30T09:54:01.688Z,60.25
2023-03-30T09:56:40.927Z,61.24
2023-03-30T09:59:23.589Z,60.82
2023-03-30T10:01:51.947Z,60.11
2023-03-30T10:04:20.806Z,60.49
2023-03-30T10:06:51.486Z,62.06
2023-03-30T10:09:25.047Z,60.39
2023-03-30T10:11:56.145Z,59.57
2023-03-30T10:14:31.663Z,58.34
2023-03-30T10:17:01.256Z,58.27
2023-03-30T10:19:30.724Z,57.87
2023-03-30T10:22:04.283Z,58.69
2023-03-30T10:24:36.795Z,57.83
2023-03-30T10:27:12.880Z,56.38
2023-03-30T10:29:48.659Z,56.27
2023-03-30T10:32:21.529Z,55.84
2023-03-30T10:34:53.422Z,55.54
2023-03-30T10:37:30.112Z,57.27
2023-03-30T10:40:02.507Z,56.06
2023-03-30T10:42:34.275Z,55.56
2023-03-30T10:45:05.688Z,56.33
2023-03-30T10:47:58.025Z,55.16
2023-03-30T10:50:36.804Z,54.90
2023-03-30T10:53:26.328Z,53.93
2023-03-30T10:56:04.608Z,54.12
2023-03-30T10:59:17.392Z,54.01
2023-03-30T11:02:01.496Z,52.33
2023-03-30T11:04:38.365Z,54.13
2023-03-30T11:07:17.790Z,54.06
2023-03-30T11:09:55.042Z,53.25
2023-03-30T11:12:31.457Z,54.09
2023-03-30T11:15:04.160Z,54.21
2023-03-30T11:17:36.326Z,54.22
2023-03-30T11:20:20.896Z,54.27
2023-03-30T11:22:54.543Z,55.08
2023-03-30T11:25:28.028Z,55.17
2023-03-30T11:28:07.040Z,59.93
2023-03-30T11:30:37.696Z,63.18
2023-03-30T11:33:20.110Z,64.93
2023-03-30T11:35:52.069Z,65.62
2023-03-30T11:38:27.556Z,64.87
2023-03-30T11:41:01.983Z,64.10
2023-03-30T11:43:32.860Z,64.11
2023-03-30T11:46:08.004Z,64.69
2023-03-30T11:49:10.603Z,64.08
2023-03-30T11:52:08.363Z,64.52
2023-03-30T11:55:07.189Z,65.03
2023-03-30T11:57:45.258Z,63.41
2023-03-30T12:00:31.126Z,63.51
2023-03-30T12:03:13.458Z,61.17
2023-03-30T12:05:47.250Z,59.68
2023-03-30T12:08:38.166Z,60.57
2023-03-30T12:11:17.497Z,60.44
2023-03-30T12:13:51.250Z,61.03
2023-03-30T12:16:30.281Z,59.08
2023-03-30T12:19:13.012Z,57.50
2023-03-30T12:21:53.024Z,56.74
2023-03-30T12:24:30.715Z,56.17
2023-03-30T12:27:06.227Z,56.13
2023-03-30T12:32:29.233Z,56.33
2023-03-30T12:34:59.448Z,56.06
2023-03-30T12:37:34.784Z,56.68
2023-03-30T12:40:10.355Z,56.33
2023-03-30T12:42:46.365Z,56.30
2023-03-30T12:45:32.297Z,57.12
2023-03-30T12:48:33.697Z,56.71
2023-03-30T12:51:16.399Z,58.20
2023-03-30T12:54:17.577Z,57.96
2023-03-30T12:56:58.273Z,57.42
2023-03-30T12:59:53.334Z,56.95
2023-03-30T13:02:44.787Z,56.59
2023-03-30T13:05:24.922Z,56.94
2023-03-30T13:07:56.327Z,57.28
2023-03-30T13:10:42.137Z,66.50
2023-03-30T13:13:24.063Z,69.49
2023-03-30T13:15:57.159Z,68.72
2023-03-30T13:18:52.691Z,67.19
2023-03-30T13:21:25.973Z,66.71
2023-03-30T13:24:36.955Z,67.10
2023-03-30T13:27:29.689Z,68.37
2023-03-30T13:30:01.029Z,68.97
2023-03-30T13:32:54.011Z,67.82
2023-03-30T13:35:38.978Z,66.64
2023-03-30T13:38:50.682Z,64.60
2023-03-30T13:41:38.457Z,62.80
2023-03-30T13:44:29.548Z,61.09
2023-03-30T13:47:10.907Z,62.02
2023-03-30T13:49:52.813Z,61.42
2023-03-30T13:52:38.371Z,61.71
2023-03-30T13:55:19.004Z,61.55
2023-03-30T13:57:47.419Z,61.41
2023-03-30T14:00:39.665Z,58.77
2023-03-30T14:03:39.890Z,61.69
2023-03-30T14:06:17.557Z,59.66
2023-03-30T14:08:49.078Z,59.63
2023-03-30T14:11:22.105Z,57.56
2023-03-30T14:13:53.397Z,58.01
2023-03-30T14:16:24.278Z,57.27
2023-03-30T14:18:53.224Z,57.34
2023-03-30T14:21:24.316Z,57.81
2023-03-30T14:23:55.256Z,58.26
2023-03-30T14:26:28.858Z,58.49
2023-03-30T14:28:58.801Z,58.94
2023-03-30T14:31:28.013Z,60.24
2023-03-30T14:33:56.739Z,59.62
2023-03-30T14:36:25.568Z,60.05
2023-03-30T14:38:57.528Z,58.92
2023-03-30T14:41:29.416Z,59.31
2023-03-30T14:44:01.315Z,57.84
2023-03-30T14:46:41.258Z,57.08
2023-03-30T14:49:15.999Z,56.06
2023-03-30T14:51:48.426Z,55.49
2023-03-30T14:54:19.780Z,55.12
2023-03-30T14:56:57.704Z,55.41
2023-03-30T14:59:27.912Z,54.78
2023-03-30T15:01:57.405Z,54.77
2023-03-30T15:04:33.007Z,54.91
2023-03-30T15:07:01.459Z,55.99
2023-03-30T15:09:37.929Z,56.04
2023-03-30T15:12:09.004Z,56.41
2023-03-30T15:14:40.549Z,55.75
2023-03-30T15:17:12.795Z,55.13
2023-03-30T15:19:41.860Z,55.29
2023-03-30T15:22:20.807Z,55.08
2023-03-30T15:24:49.334Z,55.97
2023-03-30T15:27:19.470Z,55.43
2023-03-30T15:29:48.288Z,55.53
2023-03-30T15:32:20.061Z,54.83
2023-03-30T15:35:21.143Z,55.25
2023-03-30T15:37:56.790Z,55.92
2023-03-30T15:40:36.175Z,55.67
2023-03-30T15:43:21.249Z,55.57
2023-03-30T15:45:53.349Z,56.18
2023-03-30T15:48:26.954Z,56.54
2023-03-30T15:51:03.635Z,57.71
2023-03-30T15:53:40.933Z,57.29
2023-03-30T15:56:18.773Z,57.31
2023-03-30T15:58:50.000Z,57.35
2023-03-30T16:01:18.871Z,58.43
2023-03-30T16:03:56.320Z,58.45
2023-03-30T16:06:25.405Z,59.02
2023-03-30T16:08:53.854Z,59.33
2023-03-30T16:11:23.828Z,58.34
2023-03-30T16:13:55.002Z,58.39
2023-03-30T16:16:23.441Z,58.94
2023-03-30T16:18:52.207Z,58.78
2023-03-30T16:21:24.422Z,58.33
2023-03-30T16:23:53.046Z,57.33
2023-03-30T16:26:21.781Z,57.54
2023-03-30T16:28:55.009Z,57.65
2023-03-30T16:31:24.863Z,58.52
2023-03-30T16:33:53.522Z,58.61
2023-03-30T16:36:24.112Z,58.58
2023-03-30T16:38:52.554Z,58.89
2023-03-30T16:41:23.502Z,59.31
2023-03-30T16:43:53.248Z,59.91
2023-03-30T16:46:22.191Z,59.52
2023-03-30T16:48:50.866Z,59.71
2023-03-30T16:51:20.109Z,61.10
2023-03-30T16:53:48.802Z,62.00
2023-03-30T16:56:19.315Z,62.13
2023-03-30T16:58:49.559Z,61.79
2023-03-30T17:01:19.586Z,61.86
2023-03-30T17:03:48.249Z,61.96
2023-03-30T17:06:17.184Z,62.55
2023-03-30T17:08:46.343Z,61.79
2023-03-30T17:11:15.234Z,61.72
2023-03-30T17:13:46.159Z,61.85
2023-03-30T17:16:16.519Z,62.56
2023-03-30T17:18:46.446Z,63.02
2023-03-30T17:21:17.209Z,63.45
2023-03-30T17:23:47.865Z,64.47
2023-03-30T17:26:17.177Z,64.38
2023-03-30T17:28:46.519Z,65.31
2023-03-30T17:31:18.008Z,65.60
2023-03-30T17:33:48.810Z,65.10
2023-03-30T17:36:19.986Z,64.60
2023-03-30T17:38:48.968Z,65.39
2023-03-30T17:41:19.534Z,65.27
2023-03-30T17:43:49.083Z,65.25
2023-03-30T17:46:20.700Z,65.10
2023-03-30T17:48:51.268Z,65.45
2023-03-30T17:51:19.676Z,65.24
2023-03-30T17:53:48.038Z,65.26
2023-03-30T17:56:16.414Z,65.39
2023-03-30T17:58:44.858Z,65.87
2023-03-30T18:01:13.840Z,65.53
2023-03-30T18:03:42.826Z,65.82
2023-03-30T18:06:13.899Z,65.52
2023-03-30T18:08:43.058Z,65.75
2023-03-30T18:11:11.703Z,65.75
2023-03-30T18:13:40.046Z,65.24
2023-03-30T18:16:08.707Z,64.89
2023-03-30T18:18:37.248Z,64.82
2023-03-30T18:21:06.818Z,65.29
2023-03-30T18:23:37.309Z,65.36
2023-03-30T18:26:11.109Z,65.02
2023-03-30T18:28:43.779Z,65.10
2023-03-30T18:31:12.762Z,64.98
2023-03-30T18:33:41.395Z,65.26
2023-03-30T18:36:13.273Z,65.67
2023-03-30T18:38:44.104Z,65.79
2023-03-30T18:41:13.877Z,65.51
2023-03-30T18:43:42.219Z,65.97
2023-03-30T18:46:13.800Z,65.86
2023-03-30T18:48:42.416Z,65.92
2023-03-30T18:51:12.511Z,66.21
2023-03-30T18:53:42.226Z,66.40
2023-03-30T18:56:13.755Z,66.18
2023-03-30T18:58:43.028Z,66.30
2023-03-30T19:01:13.324Z,66.21
2023-03-30T19:03:42.360Z,66.05
2023-03-30T19:06:14.016Z,65.74
2023-03-30T19:08:44.121Z,66.08
2023-03-30T19:11:17.331Z,66.39
2023-03-30T19:13:47.124Z,66.70
2023-03-30T19:16:16.956Z,66.80
2023-03-30T19:18:45.750Z,66.53
2023-03-30T19:21:17.073Z,66.78
2023-03-30T19:23:46.791Z,66.71
2023-03-30T19:26:15.423Z,67.08
2023-03-30T19:28:43.859Z,67.29
2023-03-30T19:31:15.976Z,67.24
2023-03-30T19:33:44.743Z,67.70
2023-03-30T19:36:13.145Z,67.46
2023-03-30T19:38:43.891Z,67.89
2023-03-30T19:41:13.933Z,67.88
2023-03-30T19:43:42.302Z,67.99
2023-03-30T19:46:10.889Z,67.86
2023-03-30T19:48:39.262Z,68.18
2023-03-30T19:51:07.884Z,67.98
2023-03-30T19:53:37.207Z,68.39
2023-03-30T19:56:11.084Z,68.92
2023-03-30T19:58:40.864Z,69.13
2023-03-30T20:01:10.385Z,69.32
2023-03-30T20:03:38.971Z,69.09
2023-03-30T20:06:11.606Z,69.42
2023-03-30T20:08:40.184Z,70.00
2023-03-30T20:11:09.574Z,69.87
2023-03-30T20:13:37.994Z,69.93
2023-03-30T20:16:07.912Z,70.13
2023-03-30T20:18:36.484Z,70.21
2023-03-30T20:21:05.840Z,69.83
2023-03-30T20:23:34.418Z,69.82
2023-03-30T20:26:04.507Z,70.18
2023-03-30T20:28:33.221Z,70.01
2023-03-30T20:31:01.957Z,70.25
2023-03-30T20:33:33.942Z,70.77
2023-03-30T20:36:02.416Z,71.07
2023-03-30T20:38:30.989Z,71.06
2023-03-30T20:41:02.856Z,71.41
2023-03-30T20:46:03.181Z,71.43
2023-03-30T20:48:39.153Z,71.37
2023-03-30T20:51:10.294Z,71.33
2023-03-30T20:53:39.315Z,70.93
2023-03-30T20:56:10.366Z,71.15
2023-03-30T20:58:40.087Z,71.25
2023-03-30T21:01:19.113Z,71.19
2023-03-30T21:03:50.082Z,70.83
2023-03-30T21:06:23.640Z,70.91
2023-03-30T21:08:52.419Z,70.99
2023-03-30T21:11:22.644Z,71.43
2023-03-30T21:13:51.598Z,71.74
2023-03-30T21:16:20.177Z,71.78
2023-03-30T21:18:50.679Z,71.91
2023-03-30T21:21:19.356Z,72.35
2023-03-30T21:23:47.912Z,72.02
2023-03-30T21:26:18.569Z,71.72
2023-03-30T21:28:47.272Z,72.07
2023-03-30T21:31:17.244Z,72.00
2023-03-30T21:33:45.936Z,71.35
2023-03-30T21:36:15.751Z,71.34
2023-03-30T21:38:44.094Z,71.67
2023-03-30T21:41:14.800Z,71.07
2023-03-30T21:43:45.619Z,70.80
2023-03-30T21:46:16.347Z,71.30
2023-03-30T21:48:46.741Z,71.72
2023-03-30T21:51:19.336Z,72.69
2023-03-30T21:53:51.077Z,72.74
2023-03-30T21:56:22.318Z,73.10
2023-03-30T21:58:51.265Z,73.02
2023-03-30T22:01:21.455Z,72.84
2023-03-30T22:03:49.967Z,72.95
2023-03-30T22:06:19.895Z,72.56
2023-03-30T22:08:48.606Z,72.80
2023-03-30T22:11:20.190Z,72.19
2023-03-30T22:13:49.753Z,71.98
2023-03-30T22:16:22.476Z,71.83
2023-03-30T22:18:51.874Z,71.39
2023-03-30T22:21:24.973Z,71.37
2023-03-30T22:23:54.717Z,71.28
2023-03-30T22:26:23.708Z,71.46
2023-03-30T22:28:52.053Z,72.44
2023-03-30T22:31:20.506Z,72.72
2023-03-30T22:33:49.379Z,72.00
2023-03-30T22:36:20.494Z,71.69
2023-03-30T22:38:52.107Z,72.33
2023-03-30T22:41:23.867Z,73.79
2023-03-30T22:43:53.701Z,75.29
2023-03-30T22:46:22.302Z,74.94
2023-03-30T22:48:51.841Z,75.34
2023-03-30T22:51:23.594Z,75.17
2023-03-30T22:53:53.903Z,75.22
2023-03-30T22:56:22.228Z,75.75
2023-03-30T22:58:50.560Z,75.66
2023-03-30T23:01:19.623Z,75.88
2023-03-30T23:03:48.694Z,75.56
2023-03-30T23:06:19.093Z,75.67
2023-03-30T23:08:48.712Z,74.81
2023-03-30T23:11:21.556Z,74.37
2023-03-30T23:13:52.311Z,73.48
2023-03-30T23:16:20.730Z,73.30
2023-03-30T23:18:49.804Z,72.88
2023-03-30T23:21:18.464Z,72.33
2023-03-30T23:23:46.838Z,72.14
2023-03-30T23:26:15.146Z,71.85
2023-03-30T23:28:45.391Z,71.96
2023-03-30T23:31:16.664Z,72.38
2023-03-30T23:33:45.448Z,72.30
2023-03-30T23:36:14.244Z,72.17
2023-03-30T23:38:42.863Z,72.60
2023-03-30T23:41:13.690Z,73.29
2023-03-30T23:43:42.153Z,73.45
2023-03-30T23:46:12.348Z,73.10
2023-03-30T23:48:42.081Z,73.73
2023-03-30T23:51:11.121Z,73.33
2023-03-30T23:53:40.264Z,73.44
2023-03-30T23:56:12.938Z,73.50
2023-03-30T23:58:42.412Z,73.60
